sensor_id;sensor_type;location;lat;lon;timestamp;P1;durP1;ratioP1;P2;durP2;ratioP2
71771;SDS011;59606;52.138;5.424;2022-08-03T00:01:47;5.73;;;1.00;;
71771;SDS011;59606;52.138;5.424;2022-08-03T00:04:13;5.00;;;1.15;;
71771;SDS011;59606;52.138;5.424;2022-08-03T00:06:40;4.93;;;1.00;;
71771;SDS011;59606;52.138;5.424;2022-08-03T00:09:06;3.70;;;0.80;;
71771;SDS011;59606;52.138;5.424;2022-08-03T00:11:33;5.40;;;1.38;;
71771;SDS011;59606;52.138;5.424;2022-08-03T00:14:00;6.00;;;0.90;;
71771;SDS011;59606;52.138;5.424;2022-08-03T00:16:26;4.55;;;0.88;;
71771;SDS011;59606;52.138;5.424;2022-08-03T00:18:53;8.73;;;1.35;;
71771;SDS011;59606;52.138;5.424;2022-08-03T00:21:20;2.60;;;0.70;;
71771;SDS011;59606;52.138;5.424;2022-08-03T00:23:47;4.55;;;0.90;;
71771;SDS011;59606;52.138;5.424;2022-08-03T00:26:17;3.07;;;0.93;;
71771;SDS011;59606;52.138;5.424;2022-08-03T00:28:44;10.32;;;1.02;;
71771;SDS011;59606;52.138;5.424;2022-08-03T00:31:10;8.80;;;1.15;;
71771;SDS011;59606;52.138;5.424;2022-08-03T00:33:39;3.30;;;0.85;;
71771;SDS011;59606;52.138;5.424;2022-08-03T00:36:25;4.40;;;1.10;;
71771;SDS011;59606;52.138;5.424;2022-08-03T00:38:52;4.67;;;1.30;;
71771;SDS011;59606;52.138;5.424;2022-08-03T00:41:18;4.75;;;1.08;;
71771;SDS011;59606;52.138;5.424;2022-08-03T00:43:45;6.07;;;0.93;;
71771;SDS011;59606;52.138;5.424;2022-08-03T00:46:12;4.53;;;0.93;;
71771;SDS011;59606;52.138;5.424;2022-08-03T00:48:45;2.92;;;1.05;;
71771;SDS011;59606;52.138;5.424;2022-08-03T00:51:12;4.33;;;1.53;;
71771;SDS011;59606;52.138;5.424;2022-08-03T00:53:39;4.20;;;1.50;;
71771;SDS011;59606;52.138;5.424;2022-08-03T00:56:05;6.03;;;0.88;;
71771;SDS011;59606;52.138;5.424;2022-08-03T00:58:32;8.45;;;1.17;;
71771;SDS011;59606;52.138;5.424;2022-08-03T01:00:58;8.88;;;2.00;;
71771;SDS011;59606;52.138;5.424;2022-08-03T01:03:25;4.33;;;1.27;;
71771;SDS011;59606;52.138;5.424;2022-08-03T01:05:55;6.15;;;1.42;;
71771;SDS011;59606;52.138;5.424;2022-08-03T01:13:56;5.65;;;1.25;;
71771;SDS011;59606;52.138;5.424;2022-08-03T01:19:30;6.30;;;1.20;;
71771;SDS011;59606;52.138;5.424;2022-08-03T01:25:02;4.90;;;1.75;;
71771;SDS011;59606;52.138;5.424;2022-08-03T01:30:38;6.00;;;1.10;;
71771;SDS011;59606;52.138;5.424;2022-08-03T01:33:12;6.13;;;1.40;;
71771;SDS011;59606;52.138;5.424;2022-08-03T01:35:51;4.00;;;1.30;;
71771;SDS011;59606;52.138;5.424;2022-08-03T01:38:25;3.60;;;1.08;;
71771;SDS011;59606;52.138;5.424;2022-08-03T01:40:55;5.70;;;1.58;;
71771;SDS011;59606;52.138;5.424;2022-08-03T01:43:26;5.43;;;1.13;;
71771;SDS011;59606;52.138;5.424;2022-08-03T01:46:16;5.88;;;1.80;;
71771;SDS011;59606;52.138;5.424;2022-08-03T01:48:45;8.57;;;1.23;;
71771;SDS011;59606;52.138;5.424;2022-08-03T01:51:14;7.18;;;1.65;;
71771;SDS011;59606;52.138;5.424;2022-08-03T01:53:43;3.90;;;1.35;;
71771;SDS011;59606;52.138;5.424;2022-08-03T01:56:11;9.00;;;1.40;;
71771;SDS011;59606;52.138;5.424;2022-08-03T01:58:39;10.82;;;1.50;;
71771;SDS011;59606;52.138;5.424;2022-08-03T02:01:07;5.68;;;2.13;;
71771;SDS011;59606;52.138;5.424;2022-08-03T02:03:36;11.80;;;2.10;;
71771;SDS011;59606;52.138;5.424;2022-08-03T02:06:26;10.20;;;1.80;;
71771;SDS011;59606;52.138;5.424;2022-08-03T02:09:15;7.73;;;1.27;;
71771;SDS011;59606;52.138;5.424;2022-08-03T02:11:46;7.78;;;1.33;;
71771;SDS011;59606;52.138;5.424;2022-08-03T02:14:13;5.65;;;1.58;;
71771;SDS011;59606;52.138;5.424;2022-08-03T02:16:41;7.57;;;1.55;;
71771;SDS011;59606;52.138;5.424;2022-08-03T02:19:09;5.80;;;2.05;;
71771;SDS011;59606;52.138;5.424;2022-08-03T02:21:36;7.40;;;1.80;;
71771;SDS011;59606;52.138;5.424;2022-08-03T02:24:23;5.95;;;2.00;;
71771;SDS011;59606;52.138;5.424;2022-08-03T02:26:50;10.15;;;1.83;;
71771;SDS011;59606;52.138;5.424;2022-08-03T02:29:20;5.63;;;1.75;;
71771;SDS011;59606;52.138;5.424;2022-08-03T02:32:06;7.25;;;2.25;;
71771;SDS011;59606;52.138;5.424;2022-08-03T02:34:35;6.50;;;1.90;;
71771;SDS011;59606;52.138;5.424;2022-08-03T02:37:03;8.65;;;1.70;;
71771;SDS011;59606;52.138;5.424;2022-08-03T02:39:31;7.85;;;1.52;;
71771;SDS011;59606;52.138;5.424;2022-08-03T02:42:00;7.35;;;1.63;;
71771;SDS011;59606;52.138;5.424;2022-08-03T02:44:29;12.65;;;1.80;;
71771;SDS011;59606;52.138;5.424;2022-08-03T02:46:59;6.07;;;1.50;;
71771;SDS011;59606;52.138;5.424;2022-08-03T02:49:30;12.82;;;2.25;;
71771;SDS011;59606;52.138;5.424;2022-08-03T02:52:16;7.53;;;2.05;;
71771;SDS011;59606;52.138;5.424;2022-08-03T02:54:44;5.78;;;1.65;;
71771;SDS011;59606;52.138;5.424;2022-08-03T02:57:13;10.48;;;1.85;;
71771;SDS011;59606;52.138;5.424;2022-08-03T02:59:41;9.83;;;1.53;;
71771;SDS011;59606;52.138;5.424;2022-08-03T03:02:09;9.75;;;1.70;;
71771;SDS011;59606;52.138;5.424;2022-08-03T03:04:37;7.53;;;2.67;;
71771;SDS011;59606;52.138;5.424;2022-08-03T03:07:24;7.75;;;1.45;;
71771;SDS011;59606;52.138;5.424;2022-08-03T03:09:54;8.73;;;1.65;;
71771;SDS011;59606;52.138;5.424;2022-08-03T03:12:21;9.17;;;1.57;;
71771;SDS011;59606;52.138;5.424;2022-08-03T03:14:48;9.18;;;2.03;;
71771;SDS011;59606;52.138;5.424;2022-08-03T03:17:15;5.22;;;1.70;;
71771;SDS011;59606;52.138;5.424;2022-08-03T03:19:43;6.00;;;1.63;;
71771;SDS011;59606;52.138;5.424;2022-08-03T03:22:11;10.00;;;1.90;;
71771;SDS011;59606;52.138;5.424;2022-08-03T03:24:38;13.37;;;2.07;;
71771;SDS011;59606;52.138;5.424;2022-08-03T03:27:06;8.80;;;2.42;;
71771;SDS011;59606;52.138;5.424;2022-08-03T03:29:33;6.22;;;2.65;;
71771;SDS011;59606;52.138;5.424;2022-08-03T03:32:04;9.10;;;1.80;;
71771;SDS011;59606;52.138;5.424;2022-08-03T03:34:34;3.95;;;1.98;;
71771;SDS011;59606;52.138;5.424;2022-08-03T03:37:02;8.67;;;1.90;;
71771;SDS011;59606;52.138;5.424;2022-08-03T03:39:30;5.47;;;1.83;;
71771;SDS011;59606;52.138;5.424;2022-08-03T03:41:57;7.85;;;2.35;;
71771;SDS011;59606;52.138;5.424;2022-08-03T03:44:27;8.88;;;2.30;;
71771;SDS011;59606;52.138;5.424;2022-08-03T03:46:57;9.18;;;2.05;;
71771;SDS011;59606;52.138;5.424;2022-08-03T03:49:23;6.50;;;1.73;;
71771;SDS011;59606;52.138;5.424;2022-08-03T03:51:52;7.13;;;3.00;;
71771;SDS011;59606;52.138;5.424;2022-08-03T03:54:21;11.23;;;2.92;;
71771;SDS011;59606;52.138;5.424;2022-08-03T03:56:54;8.82;;;2.10;;
71771;SDS011;59606;52.138;5.424;2022-08-03T03:59:21;9.07;;;2.45;;
71771;SDS011;59606;52.138;5.424;2022-08-03T04:01:47;9.60;;;2.40;;
71771;SDS011;59606;52.138;5.424;2022-08-03T04:04:24;4.97;;;1.60;;
71771;SDS011;59606;52.138;5.424;2022-08-03T04:07:09;7.20;;;1.98;;
71771;SDS011;59606;52.138;5.424;2022-08-03T04:09:54;7.93;;;2.10;;
71771;SDS011;59606;52.138;5.424;2022-08-03T04:12:40;9.93;;;1.95;;
71771;SDS011;59606;52.138;5.424;2022-08-03T04:15:16;8.70;;;2.07;;
71771;SDS011;59606;52.138;5.424;2022-08-03T04:17:46;8.00;;;1.83;;
71771;SDS011;59606;52.138;5.424;2022-08-03T04:20:15;8.38;;;2.10;;
71771;SDS011;59606;52.138;5.424;2022-08-03T04:22:45;6.57;;;1.98;;
71771;SDS011;59606;52.138;5.424;2022-08-03T04:25:15;7.47;;;2.33;;
71771;SDS011;59606;52.138;5.424;2022-08-03T04:27:45;8.77;;;2.30;;
71771;SDS011;59606;52.138;5.424;2022-08-03T04:30:35;7.65;;;2.20;;
71771;SDS011;59606;52.138;5.424;2022-08-03T04:33:03;9.18;;;2.42;;
71771;SDS011;59606;52.138;5.424;2022-08-03T04:35:31;11.82;;;2.38;;
71771;SDS011;59606;52.138;5.424;2022-08-03T04:38:19;8.20;;;2.03;;
71771;SDS011;59606;52.138;5.424;2022-08-03T04:40:47;8.87;;;2.20;;
71771;SDS011;59606;52.138;5.424;2022-08-03T04:43:14;8.95;;;2.88;;
71771;SDS011;59606;52.138;5.424;2022-08-03T04:45:44;5.68;;;2.05;;
71771;SDS011;59606;52.138;5.424;2022-08-03T04:48:13;7.32;;;1.98;;
71771;SDS011;59606;52.138;5.424;2022-08-03T04:50:40;9.68;;;2.55;;
71771;SDS011;59606;52.138;5.424;2022-08-03T04:53:08;11.37;;;2.40;;
71771;SDS011;59606;52.138;5.424;2022-08-03T04:55:34;11.82;;;2.05;;
71771;SDS011;59606;52.138;5.424;2022-08-03T04:58:01;11.82;;;2.33;;
71771;SDS011;59606;52.138;5.424;2022-08-03T05:00:29;10.98;;;2.45;;
71771;SDS011;59606;52.138;5.424;2022-08-03T05:02:56;14.20;;;2.33;;
71771;SDS011;59606;52.138;5.424;2022-08-03T05:05:22;8.37;;;2.43;;
71771;SDS011;59606;52.138;5.424;2022-08-03T05:07:49;9.55;;;2.20;;
71771;SDS011;59606;52.138;5.424;2022-08-03T05:10:15;10.65;;;2.08;;
71771;SDS011;59606;52.138;5.424;2022-08-03T05:12:43;11.43;;;2.50;;
71771;SDS011;59606;52.138;5.424;2022-08-03T05:15:11;11.13;;;2.20;;
71771;SDS011;59606;52.138;5.424;2022-08-03T05:17:38;7.07;;;2.43;;
71771;SDS011;59606;52.138;5.424;2022-08-03T05:20:05;8.20;;;2.15;;
71771;SDS011;59606;52.138;5.424;2022-08-03T05:22:32;11.20;;;2.33;;
71771;SDS011;59606;52.138;5.424;2022-08-03T05:24:59;7.65;;;2.70;;
71771;SDS011;59606;52.138;5.424;2022-08-03T05:27:26;9.98;;;2.72;;
71771;SDS011;59606;52.138;5.424;2022-08-03T05:29:53;9.43;;;2.40;;
71771;SDS011;59606;52.138;5.424;2022-08-03T05:32:19;14.80;;;3.38;;
71771;SDS011;59606;52.138;5.424;2022-08-03T05:34:46;14.57;;;2.60;;
71771;SDS011;59606;52.138;5.424;2022-08-03T05:37:13;13.90;;;2.33;;
71771;SDS011;59606;52.138;5.424;2022-08-03T05:39:39;18.20;;;3.22;;
71771;SDS011;59606;52.138;5.424;2022-08-03T05:42:06;12.90;;;2.63;;
71771;SDS011;59606;52.138;5.424;2022-08-03T05:44:33;14.10;;;2.20;;
71771;SDS011;59606;52.138;5.424;2022-08-03T05:46:59;7.57;;;2.50;;
71771;SDS011;59606;52.138;5.424;2022-08-03T05:49:26;7.10;;;2.40;;
71771;SDS011;59606;52.138;5.424;2022-08-03T05:51:52;10.27;;;2.67;;
71771;SDS011;59606;52.138;5.424;2022-08-03T05:54:36;10.23;;;2.13;;
71771;SDS011;59606;52.138;5.424;2022-08-03T05:57:22;11.73;;;2.40;;
71771;SDS011;59606;52.138;5.424;2022-08-03T05:59:48;12.60;;;3.03;;
71771;SDS011;59606;52.138;5.424;2022-08-03T06:02:24;13.20;;;2.28;;
71771;SDS011;59606;52.138;5.424;2022-08-03T06:04:51;12.70;;;2.50;;
71771;SDS011;59606;52.138;5.424;2022-08-03T06:07:18;13.93;;;2.50;;
71771;SDS011;59606;52.138;5.424;2022-08-03T06:09:44;13.27;;;2.90;;
71771;SDS011;59606;52.138;5.424;2022-08-03T06:12:31;14.55;;;2.80;;
71771;SDS011;59606;52.138;5.424;2022-08-03T06:15:01;13.48;;;2.40;;
71771;SDS011;59606;52.138;5.424;2022-08-03T06:17:29;10.75;;;2.13;;
71771;SDS011;59606;52.138;5.424;2022-08-03T06:20:03;9.27;;;3.27;;
71771;SDS011;59606;52.138;5.424;2022-08-03T06:22:30;11.40;;;2.15;;
71771;SDS011;59606;52.138;5.424;2022-08-03T06:24:57;9.52;;;2.33;;
71771;SDS011;59606;52.138;5.424;2022-08-03T06:27:29;9.05;;;1.88;;
71771;SDS011;59606;52.138;5.424;2022-08-03T06:30:02;21.40;;;2.15;;
71771;SDS011;59606;52.138;5.424;2022-08-03T06:32:30;12.73;;;2.50;;
71771;SDS011;59606;52.138;5.424;2022-08-03T06:34:56;10.77;;;2.90;;
71771;SDS011;59606;52.138;5.424;2022-08-03T06:37:23;12.85;;;2.42;;
71771;SDS011;59606;52.138;5.424;2022-08-03T06:39:49;13.25;;;2.33;;
71771;SDS011;59606;52.138;5.424;2022-08-03T06:42:16;9.63;;;2.35;;
71771;SDS011;59606;52.138;5.424;2022-08-03T06:44:43;10.60;;;2.27;;
71771;SDS011;59606;52.138;5.424;2022-08-03T06:47:09;12.27;;;2.20;;
71771;SDS011;59606;52.138;5.424;2022-08-03T06:49:36;11.85;;;1.98;;
71771;SDS011;59606;52.138;5.424;2022-08-03T06:52:03;7.97;;;1.92;;
71771;SDS011;59606;52.138;5.424;2022-08-03T06:54:32;13.38;;;2.90;;
71771;SDS011;59606;52.138;5.424;2022-08-03T06:56:59;9.97;;;2.10;;
71771;SDS011;59606;52.138;5.424;2022-08-03T06:59:25;11.27;;;2.40;;
71771;SDS011;59606;52.138;5.424;2022-08-03T07:02:12;9.88;;;2.70;;
71771;SDS011;59606;52.138;5.424;2022-08-03T07:04:45;11.27;;;2.08;;
71771;SDS011;59606;52.138;5.424;2022-08-03T07:07:12;9.05;;;2.60;;
71771;SDS011;59606;52.138;5.424;2022-08-03T07:09:39;13.83;;;2.60;;
71771;SDS011;59606;52.138;5.424;2022-08-03T07:12:06;10.02;;;2.47;;
71771;SDS011;59606;52.138;5.424;2022-08-03T07:14:33;11.45;;;2.00;;
71771;SDS011;59606;52.138;5.424;2022-08-03T07:17:00;14.02;;;2.20;;
71771;SDS011;59606;52.138;5.424;2022-08-03T07:19:29;9.15;;;2.08;;
71771;SDS011;59606;52.138;5.424;2022-08-03T07:21:56;12.73;;;2.20;;
71771;SDS011;59606;52.138;5.424;2022-08-03T07:24:29;11.65;;;2.05;;
71771;SDS011;59606;52.138;5.424;2022-08-03T07:26:55;9.35;;;1.92;;
71771;SDS011;59606;52.138;5.424;2022-08-03T07:29:22;15.82;;;2.55;;
71771;SDS011;59606;52.138;5.424;2022-08-03T07:31:48;9.18;;;2.00;;
71771;SDS011;59606;52.138;5.424;2022-08-03T07:34:15;14.20;;;2.30;;
71771;SDS011;59606;52.138;5.424;2022-08-03T07:36:41;12.75;;;2.25;;
71771;SDS011;59606;52.138;5.424;2022-08-03T07:39:08;7.47;;;2.15;;
71771;SDS011;59606;52.138;5.424;2022-08-03T07:41:43;10.57;;;1.92;;
71771;SDS011;59606;52.138;5.424;2022-08-03T07:44:09;16.00;;;1.77;;
71771;SDS011;59606;52.138;5.424;2022-08-03T07:46:36;9.50;;;2.37;;
71771;SDS011;59606;52.138;5.424;2022-08-03T07:49:02;8.98;;;2.33;;
71771;SDS011;59606;52.138;5.424;2022-08-03T07:51:29;12.02;;;2.90;;
71771;SDS011;59606;52.138;5.424;2022-08-03T07:53:55;14.77;;;2.13;;
71771;SDS011;59606;52.138;5.424;2022-08-03T07:56:23;10.68;;;2.33;;
71771;SDS011;59606;52.138;5.424;2022-08-03T07:58:53;10.10;;;1.90;;
71771;SDS011;59606;52.138;5.424;2022-08-03T08:01:20;12.35;;;1.95;;
71771;SDS011;59606;52.138;5.424;2022-08-03T08:03:48;12.57;;;2.08;;
71771;SDS011;59606;52.138;5.424;2022-08-03T08:06:19;16.63;;;2.63;;
71771;SDS011;59606;52.138;5.424;2022-08-03T08:08:46;12.13;;;2.38;;
71771;SDS011;59606;52.138;5.424;2022-08-03T08:11:13;11.53;;;1.83;;
71771;SDS011;59606;52.138;5.424;2022-08-03T08:13:40;8.57;;;1.88;;
71771;SDS011;59606;52.138;5.424;2022-08-03T08:16:06;13.20;;;2.88;;
71771;SDS011;59606;52.138;5.424;2022-08-03T08:18:33;11.63;;;2.25;;
71771;SDS011;59606;52.138;5.424;2022-08-03T08:20:59;12.73;;;2.50;;
71771;SDS011;59606;52.138;5.424;2022-08-03T08:23:28;12.80;;;1.77;;
71771;SDS011;59606;52.138;5.424;2022-08-03T08:26:08;12.20;;;1.63;;
71771;SDS011;59606;52.138;5.424;2022-08-03T08:28:34;12.93;;;2.47;;
71771;SDS011;59606;52.138;5.424;2022-08-03T08:31:01;9.82;;;2.15;;
71771;SDS011;59606;52.138;5.424;2022-08-03T08:33:27;10.18;;;1.83;;
71771;SDS011;59606;52.138;5.424;2022-08-03T08:36:14;12.97;;;2.30;;
71771;SDS011;59606;52.138;5.424;2022-08-03T08:38:41;18.25;;;2.92;;
71771;SDS011;59606;52.138;5.424;2022-08-03T08:41:10;12.63;;;2.97;;
71771;SDS011;59606;52.138;5.424;2022-08-03T08:43:37;18.05;;;2.50;;
71771;SDS011;59606;52.138;5.424;2022-08-03T08:46:04;11.30;;;2.58;;
71771;SDS011;59606;52.138;5.424;2022-08-03T08:48:33;10.73;;;2.17;;
71771;SDS011;59606;52.138;5.424;2022-08-03T08:51:01;12.85;;;3.00;;
71771;SDS011;59606;52.138;5.424;2022-08-03T08:53:28;18.83;;;2.47;;
71771;SDS011;59606;52.138;5.424;2022-08-03T08:55:58;9.68;;;1.95;;
71771;SDS011;59606;52.138;5.424;2022-08-03T08:58:33;19.33;;;2.30;;
71771;SDS011;59606;52.138;5.424;2022-08-03T09:01:02;12.90;;;2.43;;
71771;SDS011;59606;52.138;5.424;2022-08-03T09:03:31;14.10;;;2.35;;
71771;SDS011;59606;52.138;5.424;2022-08-03T09:05:59;12.63;;;2.38;;
71771;SDS011;59606;52.138;5.424;2022-08-03T09:08:27;15.80;;;3.03;;
71771;SDS011;59606;52.138;5.424;2022-08-03T09:10:54;13.13;;;2.38;;
71771;SDS011;59606;52.138;5.424;2022-08-03T09:13:21;13.07;;;2.73;;
71771;SDS011;59606;52.138;5.424;2022-08-03T09:15:47;18.55;;;2.08;;
71771;SDS011;59606;52.138;5.424;2022-08-03T09:18:29;11.50;;;1.90;;
71771;SDS011;59606;52.138;5.424;2022-08-03T09:23:57;14.05;;;2.35;;
71771;SDS011;59606;52.138;5.424;2022-08-03T09:26:35;9.17;;;2.43;;
71771;SDS011;59606;52.138;5.424;2022-08-03T09:29:03;17.13;;;2.33;;
71771;SDS011;59606;52.138;5.424;2022-08-03T09:34:14;15.95;;;2.95;;
71771;SDS011;59606;52.138;5.424;2022-08-03T09:39:11;13.53;;;1.80;;
71771;SDS011;59606;52.138;5.424;2022-08-03T09:41:40;10.75;;;2.38;;
71771;SDS011;59606;52.138;5.424;2022-08-03T09:44:08;14.85;;;2.28;;
71771;SDS011;59606;52.138;5.424;2022-08-03T09:46:51;15.35;;;2.33;;
71771;SDS011;59606;52.138;5.424;2022-08-03T09:49:22;11.73;;;1.88;;
71771;SDS011;59606;52.138;5.424;2022-08-03T09:51:49;14.10;;;2.50;;
71771;SDS011;59606;52.138;5.424;2022-08-03T09:54:35;15.95;;;1.83;;
71771;SDS011;59606;52.138;5.424;2022-08-03T09:57:02;12.77;;;1.83;;
71771;SDS011;59606;52.138;5.424;2022-08-03T09:59:30;11.38;;;1.67;;
71771;SDS011;59606;52.138;5.424;2022-08-03T10:01:58;12.35;;;2.60;;
71771;SDS011;59606;52.138;5.424;2022-08-03T10:04:25;10.73;;;2.00;;
71771;SDS011;59606;52.138;5.424;2022-08-03T10:09:30;16.63;;;2.25;;
71771;SDS011;59606;52.138;5.424;2022-08-03T10:11:56;13.65;;;2.60;;
71771;SDS011;59606;52.138;5.424;2022-08-03T10:14:31;12.18;;;1.95;;
71771;SDS011;59606;52.138;5.424;2022-08-03T10:16:59;16.40;;;2.50;;
71771;SDS011;59606;52.138;5.424;2022-08-03T10:19:25;9.27;;;2.00;;
71771;SDS011;59606;52.138;5.424;2022-08-03T10:21:52;13.70;;;3.00;;
71771;SDS011;59606;52.138;5.424;2022-08-03T10:24:23;13.50;;;1.52;;
71771;SDS011;59606;52.138;5.424;2022-08-03T10:27:00;10.07;;;1.88;;
71771;SDS011;59606;52.138;5.424;2022-08-03T10:29:31;12.03;;;1.87;;
71771;SDS011;59606;52.138;5.424;2022-08-03T10:32:04;11.13;;;1.98;;
71771;SDS011;59606;52.138;5.424;2022-08-03T10:34:39;11.98;;;2.28;;
71771;SDS011;59606;52.138;5.424;2022-08-03T10:37:10;11.32;;;1.70;;
71771;SDS011;59606;52.138;5.424;2022-08-03T10:39:39;14.68;;;1.95;;
71771;SDS011;59606;52.138;5.424;2022-08-03T10:42:22;14.50;;;1.60;;
71771;SDS011;59606;52.138;5.424;2022-08-03T10:45:13;11.65;;;1.77;;
71771;SDS011;59606;52.138;5.424;2022-08-03T10:47:41;11.30;;;1.30;;
71771;SDS011;59606;52.138;5.424;2022-08-03T10:50:08;9.35;;;1.50;;
71771;SDS011;59606;52.138;5.424;2022-08-03T10:52:52;12.93;;;1.98;;
71771;SDS011;59606;52.138;5.424;2022-08-03T10:55:28;10.90;;;1.37;;
71771;SDS011;59606;52.138;5.424;2022-08-03T10:59:01;10.32;;;2.03;;
71771;SDS011;59606;52.138;5.424;2022-08-03T11:04:26;7.53;;;2.42;;
71771;SDS011;59606;52.138;5.424;2022-08-03T11:09:49;14.87;;;1.70;;
71771;SDS011;59606;52.138;5.424;2022-08-03T11:14:53;8.13;;;1.88;;
71771;SDS011;59606;52.138;5.424;2022-08-03T11:17:21;10.98;;;2.47;;
71771;SDS011;59606;52.138;5.424;2022-08-03T11:19:51;7.35;;;1.80;;
71771;SDS011;59606;52.138;5.424;2022-08-03T11:22:23;8.37;;;1.40;;
71771;SDS011;59606;52.138;5.424;2022-08-03T11:27:19;8.20;;;1.10;;
71771;SDS011;59606;52.138;5.424;2022-08-03T11:32:55;9.52;;;1.30;;
71771;SDS011;59606;52.138;5.424;2022-08-03T11:35:30;7.30;;;1.30;;
71771;SDS011;59606;52.138;5.424;2022-08-03T11:38:02;9.68;;;2.10;;
71771;SDS011;59606;52.138;5.424;2022-08-03T11:42:58;10.18;;;1.60;;
71771;SDS011;59606;52.138;5.424;2022-08-03T11:45:25;10.45;;;2.45;;
71771;SDS011;59606;52.138;5.424;2022-08-03T11:47:53;9.57;;;1.40;;
71771;SDS011;59606;52.138;5.424;2022-08-03T11:50:20;8.73;;;1.40;;
71771;SDS011;59606;52.138;5.424;2022-08-03T11:52:48;5.55;;;1.73;;
71771;SDS011;59606;52.138;5.424;2022-08-03T11:55:15;10.27;;;1.95;;
71771;SDS011;59606;52.138;5.424;2022-08-03T11:57:45;7.75;;;1.58;;
71771;SDS011;59606;52.138;5.424;2022-08-03T12:00:32;5.37;;;1.37;;
71771;SDS011;59606;52.138;5.424;2022-08-03T12:08:05;7.90;;;1.20;;
71771;SDS011;59606;52.138;5.424;2022-08-03T12:10:33;8.25;;;1.30;;
71771;SDS011;59606;52.138;5.424;2022-08-03T12:13:01;7.83;;;1.30;;
71771;SDS011;59606;52.138;5.424;2022-08-03T12:15:57;7.75;;;1.70;;
71771;SDS011;59606;52.138;5.424;2022-08-03T12:18:24;7.28;;;1.05;;
71771;SDS011;59606;52.138;5.424;2022-08-03T12:20:51;11.52;;;1.90;;
71771;SDS011;59606;52.138;5.424;2022-08-03T12:23:19;8.55;;;1.50;;
71771;SDS011;59606;52.138;5.424;2022-08-03T12:25:46;6.83;;;1.73;;
71771;SDS011;59606;52.138;5.424;2022-08-03T12:31:03;9.82;;;1.92;;
71771;SDS011;59606;52.138;5.424;2022-08-03T12:33:53;12.40;;;1.58;;
71771;SDS011;59606;52.138;5.424;2022-08-03T12:36:34;4.45;;;1.00;;
71771;SDS011;59606;52.138;5.424;2022-08-03T12:39:03;5.93;;;1.93;;
71771;SDS011;59606;52.138;5.424;2022-08-03T12:41:33;11.02;;;1.50;;
71771;SDS011;59606;52.138;5.424;2022-08-03T12:44:02;4.97;;;0.90;;
71771;SDS011;59606;52.138;5.424;2022-08-03T12:46:31;6.53;;;1.15;;
71771;SDS011;59606;52.138;5.424;2022-08-03T12:49:06;5.25;;;1.48;;
71771;SDS011;59606;52.138;5.424;2022-08-03T12:51:34;7.53;;;1.03;;
71771;SDS011;59606;52.138;5.424;2022-08-03T12:54:02;5.15;;;1.35;;
71771;SDS011;59606;52.138;5.424;2022-08-03T12:56:30;5.18;;;1.30;;
71771;SDS011;59606;52.138;5.424;2022-08-03T12:58:56;9.55;;;1.50;;
71771;SDS011;59606;52.138;5.424;2022-08-03T13:01:23;8.88;;;1.90;;
71771;SDS011;59606;52.138;5.424;2022-08-03T13:03:51;5.07;;;1.60;;
71771;SDS011;59606;52.138;5.424;2022-08-03T13:06:20;8.65;;;1.70;;
71771;SDS011;59606;52.138;5.424;2022-08-03T13:08:49;5.20;;;1.60;;
71771;SDS011;59606;52.138;5.424;2022-08-03T13:11:26;4.72;;;1.52;;
71771;SDS011;59606;52.138;5.424;2022-08-03T13:14:13;5.05;;;1.38;;
71771;SDS011;59606;52.138;5.424;2022-08-03T13:16:45;4.83;;;1.30;;
71771;SDS011;59606;52.138;5.424;2022-08-03T13:19:12;7.45;;;2.35;;
71771;SDS011;59606;52.138;5.424;2022-08-03T13:21:41;5.65;;;1.45;;
71771;SDS011;59606;52.138;5.424;2022-08-03T13:24:28;7.80;;;1.70;;
71771;SDS011;59606;52.138;5.424;2022-08-03T13:26:56;6.63;;;1.67;;
71771;SDS011;59606;52.138;5.424;2022-08-03T13:29:23;5.27;;;1.83;;
71771;SDS011;59606;52.138;5.424;2022-08-03T13:31:49;6.93;;;2.47;;
71771;SDS011;59606;52.138;5.424;2022-08-03T13:34:16;5.65;;;1.73;;
71771;SDS011;59606;52.138;5.424;2022-08-03T13:36:49;4.32;;;2.00;;
71771;SDS011;59606;52.138;5.424;2022-08-03T13:39:36;4.90;;;1.90;;
71771;SDS011;59606;52.138;5.424;2022-08-03T13:42:23;5.53;;;2.10;;
71771;SDS011;59606;52.138;5.424;2022-08-03T13:44:50;17.17;;;2.45;;
71771;SDS011;59606;52.138;5.424;2022-08-03T13:47:17;6.50;;;1.80;;
71771;SDS011;59606;52.138;5.424;2022-08-03T13:49:44;5.43;;;1.77;;
71771;SDS011;59606;52.138;5.424;2022-08-03T13:52:27;6.60;;;2.10;;
71771;SDS011;59606;52.138;5.424;2022-08-03T13:54:59;5.37;;;1.80;;
71771;SDS011;59606;52.138;5.424;2022-08-03T13:57:26;5.18;;;1.67;;
71771;SDS011;59606;52.138;5.424;2022-08-03T14:00:13;4.68;;;1.65;;
71771;SDS011;59606;52.138;5.424;2022-08-03T14:02:53;5.88;;;2.08;;
71771;SDS011;59606;52.138;5.424;2022-08-03T14:05:29;7.03;;;1.92;;
71771;SDS011;59606;52.138;5.424;2022-08-03T14:07:58;3.97;;;1.90;;
71771;SDS011;59606;52.138;5.424;2022-08-03T14:10:29;7.07;;;1.98;;
71771;SDS011;59606;52.138;5.424;2022-08-03T14:12:56;5.15;;;1.60;;
71771;SDS011;59606;52.138;5.424;2022-08-03T14:15:25;13.98;;;2.20;;
71771;SDS011;59606;52.138;5.424;2022-08-03T14:17:53;6.05;;;2.35;;
71771;SDS011;59606;52.138;5.424;2022-08-03T14:20:23;4.77;;;1.93;;
71771;SDS011;59606;52.138;5.424;2022-08-03T14:23:10;6.85;;;1.30;;
71771;SDS011;59606;52.138;5.424;2022-08-03T14:25:39;3.25;;;1.52;;
71771;SDS011;59606;52.138;5.424;2022-08-03T14:28:18;5.93;;;1.88;;
71771;SDS011;59606;52.138;5.424;2022-08-03T14:30:47;6.70;;;1.27;;
71771;SDS011;59606;52.138;5.424;2022-08-03T14:33:14;2.40;;;1.20;;
71771;SDS011;59606;52.138;5.424;2022-08-03T14:35:41;4.65;;;1.73;;
71771;SDS011;59606;52.138;5.424;2022-08-03T14:38:07;4.65;;;1.35;;
71771;SDS011;59606;52.138;5.424;2022-08-03T14:40:34;4.80;;;1.10;;
71771;SDS011;59606;52.138;5.424;2022-08-03T14:43:01;5.93;;;1.23;;
71771;SDS011;59606;52.138;5.424;2022-08-03T14:45:27;7.40;;;1.40;;
71771;SDS011;59606;52.138;5.424;2022-08-03T14:47:54;7.53;;;1.40;;
71771;SDS011;59606;52.138;5.424;2022-08-03T14:50:40;11.55;;;1.60;;
71771;SDS011;59606;52.138;5.424;2022-08-03T14:53:16;6.40;;;1.50;;
71771;SDS011;59606;52.138;5.424;2022-08-03T14:55:43;4.88;;;1.42;;
71771;SDS011;59606;52.138;5.424;2022-08-03T14:58:16;3.67;;;1.50;;
71771;SDS011;59606;52.138;5.424;2022-08-03T15:00:48;5.93;;;1.60;;
71771;SDS011;59606;52.138;5.424;2022-08-03T15:03:20;5.78;;;1.48;;
71771;SDS011;59606;52.138;5.424;2022-08-03T15:05:51;5.00;;;1.60;;
71771;SDS011;59606;52.138;5.424;2022-08-03T15:08:19;4.03;;;1.35;;
71771;SDS011;59606;52.138;5.424;2022-08-03T15:10:46;3.53;;;1.17;;
71771;SDS011;59606;52.138;5.424;2022-08-03T15:13:14;5.15;;;1.63;;
71771;SDS011;59606;52.138;5.424;2022-08-03T15:15:42;3.70;;;1.05;;
71771;SDS011;59606;52.138;5.424;2022-08-03T15:18:08;8.82;;;1.70;;
71771;SDS011;59606;52.138;5.424;2022-08-03T15:20:35;4.70;;;1.35;;
71771;SDS011;59606;52.138;5.424;2022-08-03T15:23:11;3.37;;;1.27;;
71771;SDS011;59606;52.138;5.424;2022-08-03T15:25:38;4.00;;;0.98;;
71771;SDS011;59606;52.138;5.424;2022-08-03T15:28:25;5.95;;;1.00;;
71771;SDS011;59606;52.138;5.424;2022-08-03T15:30:51;2.95;;;1.30;;
71771;SDS011;59606;52.138;5.424;2022-08-03T15:33:18;3.28;;;1.27;;
71771;SDS011;59606;52.138;5.424;2022-08-03T15:35:45;5.70;;;1.23;;
71771;SDS011;59606;52.138;5.424;2022-08-03T15:38:12;2.85;;;1.10;;
71771;SDS011;59606;52.138;5.424;2022-08-03T15:40:39;4.47;;;1.20;;
71771;SDS011;59606;52.138;5.424;2022-08-03T15:43:06;3.97;;;1.20;;
71771;SDS011;59606;52.138;5.424;2022-08-03T15:45:33;5.03;;;1.40;;
71771;SDS011;59606;52.138;5.424;2022-08-03T15:48:01;2.43;;;1.10;;
71771;SDS011;59606;52.138;5.424;2022-08-03T15:50:28;5.38;;;1.30;;
71771;SDS011;59606;52.138;5.424;2022-08-03T15:52:54;6.68;;;1.10;;